Terminal Aerodrome Forecast
Issued by NWS Cleveland, OH

Home | Current Version | Previous Version | Graphics & Text | Print | Product List | Glossary On
Versions: 1 2 3 4 5 6 7 8 9 10 11 12 13 14 15 16 17 18
000
FTUS41 KCLE 222000 AAA
TAFERI
TAF AMD
KERI 222005Z 2220/2318 25015G22KT P6SM BKN045 OVC060
     FM222100 25015G22KT P6SM -SHRA BKN035 OVC050
      TEMPO 2221/2224 5SM -PLRA BKN025
     FM230100 25012KT P6SM OVC040
     FM230500 24012KT 5SM -SHSN BKN020 OVC035
     FM231000 27012G20KT P6SM VCSH OVC025=

USA.gov is the U.S. government's official web portal to all federal, state and local government web resources and services.